Time;durP1;ratioP1;P1;durP2;ratioP2;P2;SDS_P1;SDS_P2;PMS_P1;PMS_P2;Temp;Humidity;BMP_temperature;BMP_pressure;BME280_temperature;BME280_humidity;BME280_pressure;Samples;Min_cycle;Max_cycle;Signal;HPM_P1;HPM_P2
2023/08/13 00:02:20;;;;;;;12.45;7.57;;;;;;;18.23;100.00;101265.41;5016929;28;20021;-65
2023/08/13 00:04:45;;;;;;;16.83;7.82;;;;;;;18.15;100.00;101260.41;4998461;28;20046;-65
2023/08/13 00:07:11;;;;;;;17.83;9.60;;;;;;;18.14;100.00;101256.09;5010000;28;20040;-65
2023/08/13 00:09:36;;;;;;;12.48;8.20;;;;;;;18.12;100.00;101254.41;4996261;28;20045;-65
2023/08/13 00:12:02;;;;;;;12.35;7.45;;;;;;;18.12;100.00;101249.19;5014825;28;20030;-65
2023/08/13 00:14:28;;;;;;;11.98;7.63;;;;;;;18.11;100.00;101248.34;4988506;28;20059;-65
2023/08/13 00:16:54;;;;;;;12.68;7.70;;;;;;;18.12;100.00;101254.41;5010207;28;20044;-65
2023/08/13 00:19:19;;;;;;;12.05;7.28;;;;;;;18.12;100.00;101264.88;5014453;28;20045;-65
2023/08/13 00:21:45;;;;;;;12.75;7.03;;;;;;;18.14;100.00;101255.22;5011276;28;20042;-65
2023/08/13 00:24:10;;;;;;;10.65;6.50;;;;;;;18.16;100.00;101251.69;5014148;28;20767;-65
2023/08/13 00:26:38;;;;;;;10.38;6.35;;;;;;;18.19;100.00;101248.09;5015418;28;20026;-65
2023/08/13 00:29:04;;;;;;;11.10;6.15;;;;;;;18.22;100.00;101261.09;5017147;28;20048;-65
2023/08/13 00:31:30;;;;;;;6.45;4.90;;;;;;;18.22;100.00;101253.25;5017495;28;20041;-65
2023/08/13 00:33:55;;;;;;;14.40;5.63;;;;;;;18.21;100.00;101260.22;5017128;28;20513;-65
2023/08/13 00:36:21;;;;;;;9.70;5.20;;;;;;;18.20;100.00;101263.75;5012075;28;20046;-65
2023/08/13 00:38:46;;;;;;;5.88;4.55;;;;;;;18.22;100.00;101274.19;5013452;28;20037;-65
2023/08/13 00:41:12;;;;;;;7.30;4.30;;;;;;;18.24;100.00;101281.06;5020538;28;20076;-65
2023/08/13 00:43:37;;;;;;;6.07;3.78;;;;;;;18.26;100.00;101267.91;5020068;28;20044;-65
2023/08/13 00:46:04;;;;;;;8.38;4.13;;;;;;;18.28;100.00;101276.59;5017846;28;20074;-65
2023/08/13 00:48:30;;;;;;;6.30;3.90;;;;;;;18.30;100.00;101280.00;5016000;28;20041;-66
2023/08/13 00:50:56;;;;;;;4.82;3.10;;;;;;;18.34;100.00;101276.41;5010859;28;20045;-64
2023/08/13 00:53:23;;;;;;;5.97;3.10;;;;;;;18.34;100.00;101279.03;5015504;28;20039;-65
2023/08/13 00:55:48;;;;;;;5.43;3.25;;;;;;;18.37;100.00;101274.50;5011350;28;20044;-65
2023/08/13 00:58:14;;;;;;;4.75;3.10;;;;;;;18.40;100.00;101273.59;5017672;28;20045;-64
2023/08/13 01:00:39;;;;;;;5.35;3.33;;;;;;;18.44;100.00;101273.44;5018250;28;20244;-65
2023/08/13 01:03:07;;;;;;;7.90;3.88;;;;;;;18.47;100.00;101272.47;5012080;28;20052;-64
2023/08/13 01:05:48;;;;;;;6.97;3.70;;;;;;;18.49;100.00;101286.38;5013018;28;20116;-65
2023/08/13 01:08:26;;;;;;;3.65;2.80;;;;;;;18.52;100.00;101291.53;5017946;28;20045;-65
2023/08/13 01:11:01;;;;;;;5.85;3.30;;;;;;;18.53;100.00;101280.13;5012381;28;20041;-64
2023/08/13 01:13:33;;;;;;;4.40;2.67;;;;;;;18.53;100.00;101287.97;5007562;28;20048;-64
2023/08/13 01:15:59;;;;;;;4.50;2.63;;;;;;;18.53;100.00;101278.38;5014095;28;20072;-65
2023/08/13 01:18:26;;;;;;;5.40;2.90;;;;;;;18.55;100.00;101286.19;5018431;28;20544;-64
2023/08/13 01:20:52;;;;;;;3.90;2.60;;;;;;;18.54;100.00;101289.69;5017691;28;20060;-64
2023/08/13 01:23:17;;;;;;;5.32;2.53;;;;;;;18.53;100.00;101282.75;5008741;28;20188;-64
2023/08/13 01:25:52;;;;;;;3.90;2.58;;;;;;;18.51;100.00;101276.72;5012211;28;20061;-64
2023/08/13 01:28:33;;;;;;;6.47;2.53;;;;;;;18.51;100.00;101284.56;5009305;28;20060;-64
2023/08/13 01:31:05;;;;;;;3.78;2.65;;;;;;;18.46;100.00;101284.69;5015784;28;20038;-64
2023/08/13 01:33:35;;;;;;;3.00;2.28;;;;;;;18.43;100.00;101284.78;5019337;28;20121;-64
2023/08/13 01:36:07;;;;;;;5.65;2.40;;;;;;;18.38;100.00;101283.22;5005007;28;20139;-64
2023/08/13 01:38:33;;;;;;;4.45;2.20;;;;;;;18.35;100.00;101276.34;5018099;28;20088;-64
2023/08/13 01:41:03;;;;;;;6.30;2.50;;;;;;;18.32;100.00;101288.66;5018941;28;20569;-64
2023/08/13 01:43:28;;;;;;;5.05;2.80;;;;;;;18.30;100.00;101283.50;5009725;28;20041;-64
2023/08/13 01:45:54;;;;;;;2.47;1.95;;;;;;;18.32;100.00;101281.66;5014537;28;20029;-65
2023/08/13 01:48:20;;;;;;;5.40;1.90;;;;;;;18.34;100.00;101286.88;5014542;28;20083;-64
2023/08/13 01:50:45;;;;;;;5.60;2.13;;;;;;;18.36;100.00;101283.28;5014816;28;20056;-64
2023/08/13 01:53:10;;;;;;;8.70;2.65;;;;;;;18.39;100.00;101287.56;5012648;28;20038;-64
2023/08/13 01:55:36;;;;;;;2.60;1.73;;;;;;;18.39;100.00;101285.81;5009090;28;20041;-65
2023/08/13 01:58:01;;;;;;;4.20;2.00;;;;;;;18.39;100.00;101284.94;5017850;28;20103;-65
2023/08/13 02:00:27;;;;;;;3.53;2.28;;;;;;;18.36;100.00;101283.28;5017361;28;20034;-65
2023/08/13 02:02:52;;;;;;;3.47;1.92;;;;;;;18.36;100.00;101269.34;5016036;28;20051;-65
2023/08/13 02:05:18;;;;;;;4.32;2.05;;;;;;;18.33;100.00;101275.53;5002490;28;20044;-65
2023/08/13 02:07:43;;;;;;;5.05;2.15;;;;;;;18.31;100.00;101271.25;5008003;28;20030;-65
2023/08/13 02:10:09;;;;;;;4.75;2.08;;;;;;;18.26;100.00;101271.41;5012000;28;20088;-65
2023/08/13 02:12:34;;;;;;;5.88;2.45;;;;;;;18.23;100.00;101270.63;5020841;28;20037;-64
2023/08/13 02:14:59;;;;;;;4.68;2.42;;;;;;;18.18;100.00;101267.31;5000038;28;20588;-65
2023/08/13 02:17:25;;;;;;;8.63;3.20;;;;;;;18.14;100.00;101278.78;5015892;28;20036;-65
2023/08/13 02:19:50;;;;;;;2.83;2.20;;;;;;;18.12;100.00;101281.44;5016089;28;20060;-65
2023/08/13 02:22:15;;;;;;;4.60;2.03;;;;;;;18.13;100.00;101283.16;5015129;28;20042;-65
2023/08/13 02:24:41;;;;;;;4.05;2.08;;;;;;;18.15;100.00;101283.09;5021563;28;20083;-65
2023/08/13 02:27:06;;;;;;;6.30;2.08;;;;;;;18.15;100.00;101270.88;5002045;28;20498;-65
2023/08/13 02:29:32;;;;;;;2.67;1.80;;;;;;;18.18;100.00;101283.00;5015947;28;20037;-65
2023/08/13 02:31:57;;;;;;;6.25;2.38;;;;;;;18.19;100.00;101277.75;5020611;28;20038;-65
2023/08/13 02:34:23;;;;;;;3.05;2.00;;;;;;;18.18;100.00;101268.19;5022287;28;20132;-65
2023/08/13 02:36:48;;;;;;;5.90;2.30;;;;;;;18.16;100.00;101262.16;5017920;28;20051;-65
2023/08/13 02:39:14;;;;;;;5.50;2.13;;;;;;;18.15;100.00;101264.78;5016735;28;20050;-64
2023/08/13 02:41:39;;;;;;;3.85;2.10;;;;;;;18.12;100.00;101260.53;5016031;28;20091;-65
2023/08/13 02:44:05;;;;;;;4.95;2.45;;;;;;;18.09;100.00;101262.38;5009867;28;20038;-65
2023/08/13 02:46:30;;;;;;;5.78;2.83;;;;;;;18.06;100.00;101271.19;5019707;28;20072;-65
2023/08/13 02:48:55;;;;;;;4.70;2.15;;;;;;;18.01;100.00;101275.69;4997602;28;20104;-65
2023/08/13 02:51:22;;;;;;;5.38;2.30;;;;;;;17.94;100.00;101272.41;5019491;28;20102;-64
2023/08/13 02:53:47;;;;;;;5.15;2.35;;;;;;;17.88;100.00;101272.59;5020506;28;20041;-65
2023/08/13 02:56:12;;;;;;;3.10;2.25;;;;;;;17.83;100.00;101276.22;5003127;28;20048;-64
2023/08/13 02:58:38;;;;;;;3.38;2.13;;;;;;;17.80;100.00;101269.34;5014870;28;20546;-64
2023/08/13 03:01:03;;;;;;;3.17;1.92;;;;;;;17.77;100.00;101264.19;5016068;28;20568;-65
2023/08/13 03:03:29;;;;;;;2.58;1.85;;;;;;;17.72;100.00;101266.06;5010528;28;20099;-64
2023/08/13 03:05:55;;;;;;;5.43;2.40;;;;;;;17.68;100.00;101274.91;5012145;28;20025;-64
2023/08/13 03:08:20;;;;;;;6.68;2.45;;;;;;;17.63;100.00;101261.09;5018205;28;20795;-65
2023/08/13 03:10:46;;;;;;;4.25;1.92;;;;;;;17.59;100.00;101266.47;5005236;28;20041;-65
2023/08/13 03:13:11;;;;;;;7.07;2.88;;;;;;;17.54;100.00;101265.78;5014426;28;20449;-64
2023/08/13 03:15:36;;;;;;;6.03;2.33;;;;;;;17.50;100.00;101261.53;5008956;28;20525;-65
2023/08/13 03:18:02;;;;;;;5.72;2.20;;;;;;;17.46;100.00;101265.09;5011341;28;20051;-65
2023/08/13 03:20:28;;;;;;;5.10;2.05;;;;;;;17.42;100.00;101272.22;5014771;28;20486;-65
2023/08/13 03:22:53;;;;;;;4.40;2.38;;;;;;;17.39;100.00;101267.06;5011966;28;20549;-65
2023/08/13 03:25:18;;;;;;;13.00;3.10;;;;;;;17.35;100.00;101257.59;5015436;28;20725;-65
2023/08/13 03:27:44;;;;;;;4.43;2.35;;;;;;;17.31;100.00;101266.41;5017576;28;20108;-65
2023/08/13 03:30:10;;;;;;;4.25;2.40;;;;;;;17.26;100.00;101270.91;5013884;28;20029;-65
2023/08/13 03:32:36;;;;;;;7.55;2.83;;;;;;;17.22;100.00;101272.75;5018099;28;20042;-65
2023/08/13 03:35:01;;;;;;;4.38;2.40;;;;;;;17.18;100.00;101275.50;5015520;28;20041;-64
2023/08/13 03:37:27;;;;;;;4.63;2.35;;;;;;;17.16;100.00;101270.31;5012918;28;20064;-64
2023/08/13 03:39:52;;;;;;;4.28;2.33;;;;;;;17.18;100.00;101278.09;5013305;28;20156;-64
2023/08/13 03:42:17;;;;;;;5.00;2.33;;;;;;;17.17;100.00;101277.25;5017352;28;20195;-64
2023/08/13 03:44:43;;;;;;;4.78;2.50;;;;;;;17.18;100.00;101273.75;5013699;28;20871;-64
2023/08/13 03:47:08;;;;;;;3.97;2.40;;;;;;;17.16;100.00;101280.75;5011738;28;20907;-64
2023/08/13 03:49:35;;;;;;;8.52;3.08;;;;;;;17.13;100.00;101275.59;5017055;28;20406;-64
2023/08/13 03:52:00;;;;;;;4.18;2.38;;;;;;;17.13;100.00;101279.97;5019038;28;20046;-64
2023/08/13 03:54:25;;;;;;;3.58;2.08;;;;;;;17.12;100.00;101271.31;5016208;28;20056;-64
2023/08/13 03:56:51;;;;;;;4.43;2.97;;;;;;;17.14;100.00;101287.78;5013854;28;20034;-64
2023/08/13 03:59:16;;;;;;;6.72;2.45;;;;;;;17.18;100.00;101288.56;5008295;28;21765;-64
2023/08/13 04:01:42;;;;;;;3.75;2.22;;;;;;;17.20;100.00;101289.38;5009406;28;20044;-61
2023/08/13 04:04:07;;;;;;;4.38;2.33;;;;;;;17.24;100.00;101291.88;5015157;28;20734;-60
2023/08/13 04:06:32;;;;;;;3.30;2.38;;;;;;;17.27;100.00;101291.78;5007582;28;20045;-61
2023/08/13 04:08:58;;;;;;;11.88;3.05;;;;;;;17.31;100.00;101293.41;5015588;28;20029;-61
2023/08/13 04:11:23;;;;;;;5.20;2.25;;;;;;;17.35;100.00;101297.66;5017352;28;20109;-60
2023/08/13 04:13:49;;;;;;;6.00;2.30;;;;;;;17.38;100.00;101291.47;5017603;28;20052;-60
2023/08/13 04:16:14;;;;;;;3.88;2.10;;;;;;;17.39;100.00;101291.41;4996531;28;20442;-61
2023/08/13 04:18:39;;;;;;;3.67;1.85;;;;;;;17.42;100.00;101295.72;5013204;28;20108;-64
2023/08/13 04:21:05;;;;;;;4.78;2.42;;;;;;;17.41;100.00;101289.63;5012099;28;20038;-64
2023/08/13 04:23:30;;;;;;;2.80;2.10;;;;;;;17.40;100.00;101290.53;5012049;28;20064;-64
2023/08/13 04:25:55;;;;;;;5.35;2.72;;;;;;;17.35;100.00;101292.44;5015257;28;20172;-64
2023/08/13 04:28:21;;;;;;;4.03;2.58;;;;;;;17.29;100.00;101296.97;5009703;28;20510;-64
2023/08/13 04:30:46;;;;;;;5.20;2.67;;;;;;;17.26;100.00;101286.59;5014716;28;20064;-64
2023/08/13 04:33:11;;;;;;;4.00;2.35;;;;;;;17.23;100.00;101289.28;5017491;28;20044;-64
2023/08/13 04:35:37;;;;;;;5.07;2.50;;;;;;;17.20;100.00;101284.13;5017401;28;20658;-64
2023/08/13 04:38:02;;;;;;;6.55;2.63;;;;;;;17.18;100.00;101302.47;5017299;28;20044;-64
2023/08/13 04:40:28;;;;;;;6.10;2.03;;;;;;;17.17;100.00;101300.75;5010847;28;20076;-64
2023/08/13 04:42:53;;;;;;;7.15;3.03;;;;;;;17.15;100.00;101291.25;5015360;28;20040;-64
2023/08/13 04:45:18;;;;;;;5.18;2.80;;;;;;;17.14;100.00;101294.75;5013736;28;20045;-64
2023/08/13 04:47:44;;;;;;;4.70;2.63;;;;;;;17.15;100.00;101302.56;5012110;28;20029;-64
2023/08/13 04:50:09;;;;;;;4.68;2.55;;;;;;;17.16;100.00;101292.94;5012707;28;20068;-64
2023/08/13 04:52:35;;;;;;;6.15;3.05;;;;;;;17.14;100.00;101294.75;5008613;28;20049;-64
2023/08/13 04:55:01;;;;;;;14.27;3.13;;;;;;;17.14;100.00;101297.38;5014599;28;20065;-64
2023/08/13 04:57:26;;;;;;;8.15;2.70;;;;;;;17.18;100.00;101299.00;5002382;28;20073;-64
2023/08/13 04:59:52;;;;;;;5.75;2.60;;;;;;;17.23;100.00;101299.72;5006453;28;20491;-64
2023/08/13 05:02:17;;;;;;;8.20;3.30;;;;;;;17.29;100.00;101289.13;5008974;28;20038;-65
2023/08/13 05:04:42;;;;;;;5.78;2.42;;;;;;;17.35;100.00;101294.16;5011018;28;20100;-65
2023/08/13 05:07:08;;;;;;;6.38;2.75;;;;;;;17.39;100.00;101296.66;5013550;28;20048;-65
2023/08/13 05:09:34;;;;;;;5.55;2.60;;;;;;;17.43;100.00;101298.28;5005325;28;20680;-64
2023/08/13 05:12:00;;;;;;;4.82;2.53;;;;;;;17.47;100.00;101299.06;5014027;28;20041;-65
2023/08/13 05:14:25;;;;;;;6.07;3.03;;;;;;;17.51;100.00;101287.63;5000103;28;20064;-65
2023/08/13 05:16:51;;;;;;;4.40;2.50;;;;;;;17.56;100.00;101296.19;5011457;28;20133;-64
2023/08/13 05:19:16;;;;;;;4.97;3.20;;;;;;;17.60;100.00;101284.72;5013527;28;20046;-64
2023/08/13 05:21:41;;;;;;;6.95;3.00;;;;;;;17.63;100.00;101281.19;5010788;28;20157;-64
2023/08/13 05:24:07;;;;;;;6.38;3.08;;;;;;;17.63;100.00;101289.88;5015370;28;20087;-64
2023/08/13 05:26:32;;;;;;;8.18;3.15;;;;;;;17.64;100.00;101294.19;5014027;28;20021;-64
2023/08/13 05:28:58;;;;;;;6.50;2.40;;;;;;;17.69;100.00;101292.31;5006387;28;20042;-64
2023/08/13 05:31:23;;;;;;;5.00;2.95;;;;;;;17.74;100.00;101300.03;5008657;28;20046;-64
2023/08/13 05:33:53;;;;;;;4.95;2.78;;;;;;;17.80;100.00;101297.22;5011229;28;20121;-64
2023/08/13 05:36:19;;;;;;;7.65;2.75;;;;;;;17.89;100.00;101297.00;5015816;28;20065;-64
2023/08/13 05:38:44;;;;;;;4.50;2.88;;;;;;;17.93;100.00;101293.38;5014755;28;20121;-64
2023/08/13 05:41:09;;;;;;;6.93;3.13;;;;;;;17.89;100.00;101292.63;5014443;28;20044;-64
2023/08/13 05:43:35;;;;;;;8.70;3.38;;;;;;;17.90;100.00;101294.31;5016972;28;20103;-64
2023/08/13 05:46:00;;;;;;;5.03;3.40;;;;;;;18.02;100.00;101289.63;5017150;28;20399;-64
2023/08/13 05:48:25;;;;;;;5.70;2.97;;;;;;;18.06;100.00;101284.25;5019538;28;20128;-64
2023/08/13 05:50:51;;;;;;;7.15;2.83;;;;;;;18.19;100.00;101288.22;5010311;28;20096;-64
2023/08/13 05:53:16;;;;;;;6.68;3.60;;;;;;;18.35;100.00;101291.19;5011929;28;20068;-64
2023/08/13 05:55:41;;;;;;;8.77;3.45;;;;;;;18.47;100.00;101285.56;5011927;28;20136;-65
2023/08/13 05:58:07;;;;;;;8.35;3.30;;;;;;;18.62;100.00;101290.28;4997502;28;20140;-65
2023/08/13 06:00:32;;;;;;;6.03;3.33;;;;;;;18.76;100.00;101293.31;5011964;28;20065;-64
2023/08/13 06:02:58;;;;;;;4.78;2.40;;;;;;;18.92;100.00;101298.91;5005861;28;20045;-64
2023/08/13 06:05:23;;;;;;;9.07;2.85;;;;;;;19.04;100.00;101295.88;5012672;28;20043;-65
2023/08/13 06:07:48;;;;;;;9.30;3.58;;;;;;;19.17;100.00;101294.56;5009628;28;20136;-65
2023/08/13 06:10:14;;;;;;;4.65;2.92;;;;;;;19.32;100.00;101295.78;5018279;28;20442;-64
2023/08/13 06:12:39;;;;;;;8.02;2.70;;;;;;;19.48;99.68;101291.66;5011409;28;20033;-64
2023/08/13 06:15:05;;;;;;;5.70;3.20;;;;;;;19.69;98.78;101300.50;5017490;28;20120;-64
2023/08/13 06:17:30;;;;;;;4.80;2.63;;;;;;;19.74;96.12;101293.34;5015889;28;20068;-64
2023/08/13 06:19:56;;;;;;;5.00;2.70;;;;;;;19.88;95.69;101291.06;5015988;28;20126;-64
2023/08/13 06:22:21;;;;;;;5.05;2.58;;;;;;;19.98;95.41;101290.66;5011652;28;20111;-64
2023/08/13 06:24:47;;;;;;;6.97;2.70;;;;;;;20.08;94.51;101293.78;4997928;28;20152;-64
2023/08/13 06:27:12;;;;;;;5.93;2.72;;;;;;;19.97;90.01;101281.09;5008250;28;20037;-64
2023/08/13 06:29:38;;;;;;;4.97;2.88;;;;;;;20.17;90.78;101285.53;5011211;28;20037;-64
2023/08/13 06:32:03;;;;;;;7.65;2.67;;;;;;;20.26;89.93;101281.69;5004721;28;20069;-64
2023/08/13 06:34:29;;;;;;;4.68;2.17;;;;;;;20.35;89.19;101287.44;5015947;28;20037;-64
2023/08/13 06:36:54;;;;;;;5.85;2.35;;;;;;;20.44;87.97;101279.19;5018717;28;20076;-64
2023/08/13 06:39:21;;;;;;;4.13;2.20;;;;;;;20.52;87.11;101284.97;5015457;28;20041;-64
2023/08/13 06:41:47;;;;;;;6.30;2.75;;;;;;;20.59;86.40;101290.84;5006761;28;20080;-64
2023/08/13 06:44:18;;;;;;;6.47;2.20;;;;;;;20.64;86.26;101294.13;5014767;28;20607;-63
2023/08/13 06:46:43;;;;;;;8.18;2.88;;;;;;;20.62;85.36;101281.06;5011697;28;20038;-64
2023/08/13 06:49:08;;;;;;;9.80;3.08;;;;;;;20.68;86.02;101300.97;5010094;28;20041;-64
2023/08/13 06:51:34;;;;;;;6.22;2.53;;;;;;;20.71;86.12;101295.63;5003361;28;20040;-63
2023/08/13 06:53:59;;;;;;;6.32;2.33;;;;;;;20.70;83.96;101288.66;5017807;28;20217;-63
2023/08/13 06:56:24;;;;;;;6.43;2.58;;;;;;;20.74;84.19;101286.75;5000473;28;20631;-64
2023/08/13 06:58:50;;;;;;;4.43;2.50;;;;;;;20.78;84.67;101281.28;4995421;28;20033;-64
2023/08/13 07:01:15;;;;;;;7.05;2.58;;;;;;;20.75;84.83;101280.59;5017832;28;20116;-64
2023/08/13 07:03:41;;;;;;;5.07;2.63;;;;;;;20.80;84.80;101275.97;5019186;28;20041;-64
2023/08/13 07:06:07;;;;;;;6.82;3.28;;;;;;;20.75;85.44;101281.41;5012291;28;20091;-64
2023/08/13 07:08:32;;;;;;;7.47;3.10;;;;;;;20.74;84.55;101274.47;5009292;28;20446;-64
2023/08/13 07:10:59;;;;;;;5.82;2.58;;;;;;;20.88;84.54;101284.38;5014899;28;20049;-64
2023/08/13 07:13:25;;;;;;;7.35;2.80;;;;;;;20.92;83.12;101265.81;5010649;28;20064;-65
2023/08/13 07:15:51;;;;;;;8.48;2.95;;;;;;;20.99;82.92;101267.22;5010161;28;20041;-64
2023/08/13 07:18:16;;;;;;;8.32;3.17;;;;;;;21.01;80.38;101262.78;5011518;28;20041;-64
2023/08/13 07:20:42;;;;;;;8.02;3.05;;;;;;;21.09;80.21;101265.94;5014308;28;20041;-65
2023/08/13 07:23:08;;;;;;;8.35;3.10;;;;;;;21.09;79.07;101255.41;5011321;28;20045;-65
2023/08/13 07:25:33;;;;;;;8.93;3.25;;;;;;;21.19;79.65;101263.75;4993687;28;20542;-64
2023/08/13 07:27:58;;;;;;;7.35;2.90;;;;;;;21.25;80.03;101269.56;5010492;28;20148;-64
2023/08/13 07:30:24;;;;;;;6.47;2.88;;;;;;;21.26;80.78;101275.69;5015272;28;20089;-64
2023/08/13 07:32:49;;;;;;;8.80;3.35;;;;;;;21.36;80.27;101276.13;5015211;28;20029;-64
2023/08/13 07:35:15;;;;;;;9.30;2.60;;;;;;;21.46;80.51;101278.28;5016304;28;20029;-64
2023/08/13 07:37:41;;;;;;;7.13;3.05;;;;;;;21.54;80.00;101278.81;5011503;28;20132;-64
2023/08/13 07:40:07;;;;;;;7.70;3.35;;;;;;;21.65;79.06;101281.81;5003251;28;20125;-64
2023/08/13 07:42:34;;;;;;;10.45;2.53;;;;;;;21.68;74.66;101247.47;5016578;28;20045;-64
2023/08/13 07:44:59;;;;;;;7.20;2.90;;;;;;;21.66;75.34;101273.03;5017657;28;20599;-64
2023/08/13 07:47:25;;;;;;;6.85;2.83;;;;;;;21.62;74.80;101257.44;5014904;28;20529;-64
2023/08/13 07:49:50;;;;;;;10.20;3.55;;;;;;;21.78;74.34;101266.34;5013570;28;20042;-64
2023/08/13 07:52:15;;;;;;;9.23;3.47;;;;;;;21.84;73.63;101262.56;5005029;28;20092;-64
2023/08/13 07:54:41;;;;;;;7.05;2.90;;;;;;;21.87;72.92;101255.38;5013590;28;20040;-64
2023/08/13 07:57:06;;;;;;;11.98;3.72;;;;;;;21.98;72.78;101255.72;5009342;28;20045;-64
2023/08/13 07:59:31;;;;;;;6.22;2.67;;;;;;;22.09;72.89;101263.09;4996898;28;20124;-64
2023/08/13 08:01:57;;;;;;;10.15;3.65;;;;;;;22.10;72.33;101252.50;5006045;28;20033;-65
2023/08/13 08:04:22;;;;;;;8.35;2.95;;;;;;;22.07;69.74;101221.06;5009938;28;20136;-65
2023/08/13 08:06:48;;;;;;;7.65;2.63;;;;;;;21.88;68.67;101225.47;5004504;28;20038;-65
2023/08/13 08:09:13;;;;;;;9.80;2.95;;;;;;;21.91;69.00;101219.25;5012653;28;20043;-65
2023/08/13 08:11:38;;;;;;;8.25;2.75;;;;;;;21.93;69.14;101233.16;5009974;28;20116;-65
2023/08/13 08:14:04;;;;;;;8.38;3.30;;;;;;;22.06;69.87;101237.75;5003338;28;20735;-65
2023/08/13 08:16:29;;;;;;;7.75;2.47;;;;;;;22.18;68.82;101231.03;5008460;28;20037;-65
2023/08/13 08:18:54;;;;;;;8.07;2.60;;;;;;;22.20;67.73;101216.03;5005498;28;20038;-68
2023/08/13 08:21:20;;;;;;;6.55;2.40;;;;;;;22.30;66.83;101202.34;5009167;28;20046;-65
2023/08/13 08:23:45;;;;;;;6.82;2.45;;;;;;;22.52;66.90;101204.78;5012109;28;20036;-66
2023/08/13 08:26:11;;;;;;;8.07;2.30;;;;;;;22.34;65.22;101179.34;5013773;28;20038;-65
2023/08/13 08:28:36;;;;;;;9.35;2.05;;;;;;;22.24;64.09;101175.44;5005807;28;20042;-65
2023/08/13 08:31:01;;;;;;;9.60;3.05;;;;;;;22.30;64.40;101186.53;5014353;28;20133;-65
2023/08/13 08:33:27;;;;;;;5.28;2.08;;;;;;;22.45;65.39;101203.38;5012329;28;20133;-65
2023/08/13 08:35:52;;;;;;;8.48;2.35;;;;;;;22.47;64.96;101195.41;5011852;28;20649;-65
2023/08/13 08:38:17;;;;;;;8.95;2.53;;;;;;;22.52;66.15;101220.59;5007943;28;20094;-65
2023/08/13 08:40:45;;;;;;;7.90;2.58;;;;;;;22.51;67.72;101232.03;5010823;28;20034;-67
2023/08/13 08:43:11;;;;;;;6.05;2.45;;;;;;;22.57;67.62;101237.00;5019152;28;20128;-66
2023/08/13 08:45:37;;;;;;;8.60;2.58;;;;;;;22.61;67.44;101235.06;5010950;28;20038;-67
2023/08/13 08:48:06;;;;;;;7.15;2.83;;;;;;;22.64;68.40;101245.47;4999990;28;20033;-66
2023/08/13 08:50:31;;;;;;;6.13;2.60;;;;;;;22.58;67.73;101230.81;5014914;28;20022;-67
2023/08/13 08:52:57;;;;;;;6.25;2.00;;;;;;;22.77;67.56;101228.09;5016843;28;20670;-67
2023/08/13 08:55:22;;;;;;;7.70;2.22;;;;;;;22.97;66.63;101205.97;5018551;28;20038;-67
2023/08/13 08:57:49;;;;;;;8.23;2.67;;;;;;;22.94;66.79;101217.53;5018029;28;20037;-67
2023/08/13 09:00:14;;;;;;;8.50;2.70;;;;;;;22.99;65.71;101193.56;5014806;28;20049;-66
2023/08/13 09:02:41;;;;;;;8.55;2.55;;;;;;;23.19;66.13;101196.88;5015563;28;20528;-66
2023/08/13 09:05:07;;;;;;;6.20;2.40;;;;;;;23.35;67.13;101220.66;5014527;28;20622;-66
2023/08/13 09:07:33;;;;;;;11.07;2.80;;;;;;;23.54;65.16;101187.03;5021229;28;20037;-64
2023/08/13 09:09:59;;;;;;;9.85;2.80;;;;;;;23.72;65.15;101190.47;5017463;28;20041;-65
2023/08/13 09:12:24;;;;;;;7.88;2.35;;;;;;;23.71;62.34;101144.72;5013945;28;20733;-64
2023/08/13 09:14:55;;;;;;;6.82;2.42;;;;;;;23.80;64.76;101182.94;5014605;28;20079;-64
2023/08/13 09:17:24;;;;;;;6.65;2.28;;;;;;;23.93;62.59;101160.19;5019320;28;20037;-64
2023/08/13 09:19:50;;;;;;;5.57;2.25;;;;;;;23.92;59.47;101106.53;5001835;28;20029;-64
2023/08/13 09:22:15;;;;;;;6.95;2.17;;;;;;;24.15;60.52;101121.06;5011758;28;20104;-64
2023/08/13 09:24:43;;;;;;;8.18;2.70;;;;;;;23.92;60.08;101135.59;5018115;28;20033;-64
2023/08/13 09:27:09;;;;;;;10.13;2.72;;;;;;;24.07;59.95;101120.66;5016259;28;20711;-64
2023/08/13 09:29:36;;;;;;;5.03;2.17;;;;;;;24.12;59.96;101128.31;5020906;28;20029;-65
2023/08/13 09:32:03;;;;;;;8.07;2.63;;;;;;;24.27;60.29;101132.69;5013298;28;20040;-64
2023/08/13 09:34:30;;;;;;;8.07;2.60;;;;;;;24.38;60.22;101119.69;5010373;28;20042;-65
2023/08/13 09:36:56;;;;;;;8.23;2.40;;;;;;;24.14;59.64;101111.44;5014822;28;20048;-64
2023/08/13 09:39:26;;;;;;;11.18;2.28;;;;;;;24.15;57.68;101078.81;5018504;28;20030;-65
2023/08/13 09:41:52;;;;;;;8.55;2.45;;;;;;;24.04;59.05;101098.88;5013963;28;20037;-65
2023/08/13 09:44:20;;;;;;;7.18;2.30;;;;;;;23.89;58.40;101075.03;5015102;28;20064;-65
2023/08/13 09:46:53;;;;;;;7.45;2.38;;;;;;;23.79;58.40;101083.56;5016236;28;20033;-64
2023/08/13 09:49:19;;;;;;;8.45;2.65;;;;;;;23.88;59.89;101105.00;5012515;28;20738;-65
2023/08/13 09:51:48;;;;;;;7.22;2.42;;;;;;;23.95;60.58;101111.69;5012844;28;20037;-64
2023/08/13 09:54:29;;;;;;;7.07;1.90;;;;;;;23.87;59.71;101110.34;5014763;28;20048;-64
2023/08/13 09:57:06;;;;;;;7.03;2.65;;;;;;;23.94;63.17;101160.13;5011254;28;20038;-64
2023/08/13 09:59:36;;;;;;;8.55;2.70;;;;;;;23.74;62.86;101154.25;4992721;28;20796;-64
2023/08/13 10:02:06;;;;;;;9.57;2.78;;;;;;;23.79;64.29;101174.19;5015762;28;20046;-64
2023/08/13 10:04:33;;;;;;;7.95;2.60;;;;;;;23.65;62.10;101137.16;5015939;28;20056;-64
2023/08/13 10:06:59;;;;;;;6.55;2.08;;;;;;;23.79;62.30;101141.63;5018876;28;20045;-64
2023/08/13 10:09:25;;;;;;;7.65;2.50;;;;;;;23.80;62.57;101149.50;5020092;28;20128;-64
2023/08/13 10:11:51;;;;;;;6.50;2.75;;;;;;;24.06;63.05;101158.56;5019510;28;20032;-64
2023/08/13 10:14:17;;;;;;;8.23;2.95;;;;;;;24.07;62.51;101147.09;5015683;28;20045;-65
2023/08/13 10:16:44;;;;;;;9.25;2.90;;;;;;;23.96;62.21;101131.84;5014246;28;20068;-65
2023/08/13 10:19:09;;;;;;;10.02;2.95;;;;;;;24.05;61.49;101126.94;5019220;28;20414;-65
2023/08/13 10:21:36;;;;;;;8.65;2.47;;;;;;;24.21;61.47;101120.69;5013700;28;20045;-65
2023/08/13 10:24:03;;;;;;;10.85;3.22;;;;;;;24.06;61.86;101134.81;5016879;28;20033;-65
2023/08/13 10:26:29;;;;;;;7.88;2.53;;;;;;;23.99;60.57;101107.03;4995781;28;20553;-60
2023/08/13 10:28:54;;;;;;;9.02;2.65;;;;;;;24.13;60.67;101106.25;5010402;28;20116;-60
2023/08/13 10:31:23;;;;;;;7.53;2.85;;;;;;;24.22;61.38;101113.63;5008612;28;20038;-60
2023/08/13 10:34:12;;;;;;;11.00;2.88;;;;;;;24.35;61.87;101118.09;5012362;28;20064;-59
2023/08/13 10:36:51;;;;;;;7.13;2.58;;;;;;;24.57;60.61;101096.50;5014508;28;20270;-60
2023/08/13 10:39:33;;;;;;;6.03;2.20;;;;;;;24.50;59.61;101085.44;5011822;28;20116;-60
2023/08/13 10:41:58;;;;;;;9.18;2.90;;;;;;;24.47;60.48;101106.78;5009711;28;20037;-60
2023/08/13 10:44:28;;;;;;;11.10;3.35;;;;;;;24.47;60.70;101103.28;5009514;28;20053;-59
2023/08/13 10:46:54;;;;;;;6.70;2.58;;;;;;;24.60;60.62;101101.59;5011291;28;20037;-59
2023/08/13 10:49:21;;;;;;;4.55;2.17;;;;;;;24.66;61.13;101121.53;5015547;28;20052;-60
2023/08/13 10:51:49;;;;;;;7.80;2.75;;;;;;;24.64;60.64;101111.03;5007637;28;20049;-60
2023/08/13 10:54:14;;;;;;;7.90;2.35;;;;;;;24.47;61.14;101120.00;5008961;28;20117;-61
2023/08/13 10:56:45;;;;;;;9.27;2.85;;;;;;;24.44;61.21;101104.31;5007596;28;20544;-60
2023/08/13 10:59:11;;;;;;;8.50;2.20;;;;;;;24.36;62.30;101117.16;5007482;28;20143;-60
2023/08/13 11:02:10;;;;;;;9.70;2.65;;;;;;;24.53;61.84;101119.63;5012445;28;20426;-60
2023/08/13 11:04:36;;;;;;;9.90;3.13;;;;;;;24.36;61.97;101106.59;5009596;28;20042;-59
2023/08/13 11:07:01;;;;;;;8.73;2.97;;;;;;;24.17;62.28;101116.53;5005347;28;20065;-60
2023/08/13 11:09:29;;;;;;;6.68;2.65;;;;;;;24.12;62.51;101123.03;5015015;28;20678;-60
2023/08/13 11:11:55;;;;;;;7.68;2.90;;;;;;;24.10;62.78;101125.78;5010046;28;20104;-60
2023/08/13 11:14:21;;;;;;;7.60;3.10;;;;;;;24.28;63.54;101148.47;5016785;28;20029;-59
2023/08/13 11:16:47;;;;;;;12.45;3.33;;;;;;;24.30;65.09;101166.88;5010891;28;20041;-59